Time;durP1;ratioP1;P1;durP2;ratioP2;P2;SDS_P1;SDS_P2;PMS_P1;PMS_P2;Temp;Humidity;BMP_temperature;BMP_pressure;BME280_temperature;BME280_humidity;BME280_pressure;Samples;Min_cycle;Max_cycle;Signal;HPM_P1;HPM_P2
2021/03/16 00:00:20;;;;;;;;;16.00;15.00;;;;;-142.71;100.00;64517.53;3725365;38;20646;-61
2021/03/16 00:02:46;;;;;;;;;20.00;17.50;;;;;-142.71;100.00;64517.53;3725341;38;20582;-60
2021/03/16 00:05:14;;;;;;;;;20.50;17.50;;;;;-142.71;100.00;64517.53;3724995;37;20654;-61
2021/03/16 00:07:41;;;;;;;;;14.50;12.75;;;;;-142.71;100.00;64517.53;3725120;38;20636;-60
2021/03/16 00:10:09;;;;;;;;;18.00;16.25;;;;;-142.71;100.00;64517.53;3724964;37;20623;-60
2021/03/16 00:12:36;;;;;;;;;16.50;14.00;;;;;-142.71;100.00;64517.53;3724939;38;20612;-61
2021/03/16 00:15:04;;;;;;;;;12.25;8.25;;;;;-142.71;100.00;64517.53;3724906;38;20604;-61
2021/03/16 00:17:32;;;;;;;;;22.50;17.00;;;;;-142.71;100.00;64517.53;3725349;37;20541;-61
2021/03/16 00:19:59;;;;;;;;;18.25;14.00;;;;;-142.71;100.00;64517.53;3725243;37;20610;-60
2021/03/16 00:22:26;;;;;;;;;16.50;13.50;;;;;-142.71;100.00;64517.53;3724838;38;20588;-60
2021/03/16 00:24:57;;;;;;;;;17.75;16.25;;;;;-142.71;100.00;64517.53;3725462;37;20588;-61
2021/03/16 00:27:24;;;;;;;;;10.75;7.25;;;;;-142.71;100.00;64517.53;3725542;37;20575;-60
2021/03/16 00:29:56;;;;;;;;;21.00;17.50;;;;;-142.71;100.00;64517.53;3724983;37;20504;-62
2021/03/16 00:32:23;;;;;;;;;22.50;19.25;;;;;-142.71;100.00;64517.53;3724919;37;20608;-61
2021/03/16 00:34:51;;;;;;;;;17.75;15.00;;;;;-142.71;100.00;64517.53;3725390;37;20616;-61
2021/03/16 00:37:17;;;;;;;;;16.00;14.00;;;;;-142.71;100.00;64517.53;3725075;38;20760;-60
2021/03/16 00:39:44;;;;;;;;;17.25;13.75;;;;;-142.71;100.00;64517.53;3725326;37;20613;-61
2021/03/16 00:42:14;;;;;;;;;23.00;19.50;;;;;-142.71;100.00;64517.53;3724878;38;20736;-61
2021/03/16 00:44:41;;;;;;;;;17.50;15.50;;;;;-142.71;100.00;64517.53;3725025;37;20612;-61
2021/03/16 00:47:07;;;;;;;;;19.25;18.00;;;;;-142.71;100.00;64517.53;3725254;38;20667;-60
2021/03/16 00:49:33;;;;;;;;;19.00;17.25;;;;;-142.71;100.00;64517.53;3725243;37;20579;-60
2021/03/16 00:52:01;;;;;;;;;17.25;16.50;;;;;-142.71;100.00;64517.53;3725313;37;20554;-60
2021/03/16 00:54:29;;;;;;;;;18.75;16.00;;;;;-142.71;100.00;64517.53;3724854;37;20677;-61
2021/03/16 00:56:58;;;;;;;;;20.25;18.00;;;;;-142.71;100.00;64517.53;3724863;38;20572;-61
2021/03/16 00:59:24;;;;;;;;;20.00;19.00;;;;;-142.71;100.00;64517.53;3724222;37;20568;-60
2021/03/16 01:01:50;;;;;;;;;18.00;16.75;;;;;-142.71;100.00;64517.53;3724278;37;20549;-61
2021/03/16 01:04:17;;;;;;;;;16.75;16.75;;;;;-142.71;100.00;64517.53;3724819;37;20566;-59
2021/03/16 01:06:45;;;;;;;;;19.25;17.75;;;;;-142.71;100.00;64517.53;3725290;38;20541;-62
2021/03/16 01:09:11;;;;;;;;;17.00;13.50;;;;;-142.71;100.00;64517.53;3724877;38;20654;-60
2021/03/16 01:11:38;;;;;;;;;16.00;13.50;;;;;-142.71;100.00;64517.53;3725217;37;20484;-60
2021/03/16 01:14:06;;;;;;;;;16.50;14.00;;;;;-142.71;100.00;64517.53;3725265;38;20592;-62
2021/03/16 01:16:33;;;;;;;;;15.50;14.25;;;;;-142.71;100.00;64517.53;3725130;38;20517;-60
2021/03/16 01:19:00;;;;;;;;;12.75;12.75;;;;;-142.71;100.00;64517.53;3725303;37;20541;-60
2021/03/16 01:21:30;;;;;;;;;16.00;13.50;;;;;-142.71;100.00;64517.53;3724896;38;20472;-61
2021/03/16 01:23:57;;;;;;;;;18.75;16.50;;;;;-142.71;100.00;64517.53;3725291;37;20546;-60
2021/03/16 01:26:23;;;;;;;;;11.50;11.00;;;;;-142.71;100.00;64517.53;3724947;38;20507;-61
2021/03/16 01:28:50;;;;;;;;;13.00;12.25;;;;;-142.71;100.00;64517.53;3725408;37;20471;-60
2021/03/16 01:31:16;;;;;;;;;14.00;14.00;;;;;-142.71;100.00;64517.53;3725184;38;20526;-59
2021/03/16 01:33:43;;;;;;;;;16.50;13.00;;;;;-142.71;100.00;64517.53;3725472;37;20483;-61
2021/03/16 01:36:11;;;;;;;;;13.50;11.75;;;;;-142.71;100.00;64517.53;3725383;37;20484;-60
2021/03/16 01:38:39;;;;;;;;;14.75;14.25;;;;;-142.71;100.00;64517.53;3724833;38;20442;-59
2021/03/16 01:41:06;;;;;;;;;12.50;12.00;;;;;-142.71;100.00;64517.53;3724903;38;20490;-60
2021/03/16 01:43:33;;;;;;;;;14.00;13.75;;;;;-142.71;100.00;64517.53;3724990;37;20484;-59
2021/03/16 01:46:06;;;;;;;;;16.00;13.00;;;;;-142.71;100.00;64517.53;3725198;38;20504;-60
2021/03/16 01:48:35;;;;;;;;;12.75;12.25;;;;;-142.71;100.00;64517.53;3724999;38;20477;-61
2021/03/16 01:51:06;;;;;;;;;14.50;13.50;;;;;-142.71;100.00;64517.53;3725421;38;20440;-62
2021/03/16 01:53:39;;;;;;;;;15.00;13.75;;;;;-142.71;100.00;64517.53;3725409;37;20476;-62
2021/03/16 01:56:11;;;;;;;;;13.00;12.25;;;;;-142.71;100.00;64517.53;3724815;37;20489;-61
2021/03/16 01:58:44;;;;;;;;;16.25;14.00;;;;;-142.71;100.00;64517.53;3724697;38;20513;-60
2021/03/16 02:01:13;;;;;;;;;12.00;11.25;;;;;-142.71;100.00;64517.53;3725321;37;20498;-62
2021/03/16 02:03:40;;;;;;;;;12.25;12.25;;;;;-142.71;100.00;64517.53;3724967;38;20416;-61
2021/03/16 02:06:17;;;;;;;;;14.00;13.50;;;;;-142.71;100.00;64517.53;3724876;38;20423;-62
2021/03/16 02:09:14;;;;;;;;;8.00;6.00;;;;;-142.71;100.00;64517.53;3724862;37;21417;-60
2021/03/16 02:12:06;;;;;;;;;18.75;16.75;;;;;-142.71;100.00;64517.53;3725288;38;21289;-60
2021/03/16 02:14:42;;;;;;;;;12.00;12.00;;;;;-142.71;100.00;64517.53;3724916;38;21460;-59
2021/03/16 02:17:31;;;;;;;;;17.50;15.25;;;;;-142.71;100.00;64517.53;3724972;38;21395;-59
2021/03/16 02:20:41;;;;;;;;;15.75;14.00;;;;;-142.71;100.00;64517.53;3724966;37;20559;-61
2021/03/16 02:23:20;;;;;;;;;16.25;14.50;;;;;-142.71;100.00;64517.53;3725452;38;20417;-60
2021/03/16 02:26:21;;;;;;;;;16.25;15.00;;;;;-142.71;100.00;64517.53;3724970;37;21468;-60
2021/03/16 02:29:18;;;;;;;;;12.50;11.75;;;;;-142.71;100.00;64517.53;3724910;37;21461;-58
2021/03/16 02:32:08;;;;;;;;;17.00;15.50;;;;;-142.71;100.00;64517.53;3725047;38;21772;-57
2021/03/16 02:34:37;;;;;;;;;17.50;15.50;;;;;-142.71;100.00;64517.53;3725024;37;21799;-61
2021/03/16 02:37:09;;;;;;;;;16.75;15.25;;;;;-142.71;100.00;64517.53;3724725;38;21751;-59
2021/03/16 02:39:41;;;;;;;;;21.50;17.50;;;;;-142.71;100.00;64517.53;3725206;37;21787;-58
2021/03/16 02:42:13;;;;;;;;;12.00;10.25;;;;;-142.71;100.00;64517.53;3724698;38;21768;-60
2021/03/16 02:44:41;;;;;;;;;14.25;13.50;;;;;-142.71;100.00;64517.53;3724636;37;21728;-59
2021/03/16 02:47:10;;;;;;;;;17.00;15.75;;;;;-142.71;100.00;64517.53;3724603;38;21767;-60
2021/03/16 02:49:43;;;;;;;;;16.50;14.00;;;;;-142.71;100.00;64517.53;3724677;38;21774;-60
2021/03/16 02:52:12;;;;;;;;;14.00;11.50;;;;;-142.71;100.00;64517.53;3724686;37;21703;-59
2021/03/16 02:54:39;;;;;;;;;15.75;14.00;;;;;-142.71;100.00;64517.53;3724778;38;21786;-61
2021/03/16 02:57:07;;;;;;;;;13.50;12.25;;;;;-142.71;100.00;64517.53;3725093;37;21702;-59
2021/03/16 02:59:35;;;;;;;;;12.00;11.75;;;;;-142.71;100.00;64517.53;3725116;38;21726;-60
2021/03/16 03:02:02;;;;;;;;;15.75;13.00;;;;;-142.71;100.00;64517.53;3724725;37;21711;-60
2021/03/16 03:04:31;;;;;;;;;13.50;11.50;;;;;-142.71;100.00;64517.53;3725090;38;21686;-59
2021/03/16 03:06:59;;;;;;;;;16.75;13.00;;;;;-142.71;100.00;64517.53;3724860;37;21718;-61
2021/03/16 03:09:29;;;;;;;;;14.50;10.50;;;;;-142.71;100.00;64517.53;3724721;37;21688;-60
2021/03/16 03:11:56;;;;;;;;;17.50;15.25;;;;;-142.71;100.00;64517.53;3725158;38;21696;-60
2021/03/16 03:14:22;;;;;;;;;14.00;13.00;;;;;-142.71;100.00;64517.53;3725209;37;21669;-59
2021/03/16 03:16:50;;;;;;;;;19.00;17.25;;;;;-142.71;100.00;64517.53;3725313;37;21753;-60
2021/03/16 03:19:17;;;;;;;;;13.00;12.50;;;;;-142.71;100.00;64517.53;3724623;38;21687;-61
2021/03/16 03:22:06;;;;;;;;;12.75;10.50;;;;;-142.71;100.00;64517.53;3724718;38;21697;-61
2021/03/16 03:24:39;;;;;;;;;15.50;11.00;;;;;-142.71;100.00;64517.53;3725815;38;21614;-60
2021/03/16 03:27:24;;;;;;;;;15.00;11.50;;;;;-142.71;100.00;64517.53;3725371;38;21679;-62
2021/03/16 03:29:52;;;;;;;;;12.75;10.00;;;;;-142.71;100.00;64517.53;3728542;37;21658;-59
2021/03/16 03:32:29;;;;;;;;;15.50;14.00;;;;;-142.71;100.00;64517.53;3729645;38;21314;-60
2021/03/16 03:35:00;;;;;;;;;13.50;11.00;;;;;-142.71;100.00;64517.53;3726059;37;21338;-60
2021/03/16 03:37:32;;;;;;;;;13.00;9.50;;;;;-142.71;100.00;64517.53;3727602;37;21337;-60
2021/03/16 03:40:00;;;;;;;;;8.00;7.25;;;;;-142.71;100.00;64517.53;3729526;37;21307;-60
2021/03/16 03:42:30;;;;;;;;;9.75;8.75;;;;;-142.71;100.00;64517.53;3730090;37;21247;-60
2021/03/16 03:45:00;;;;;;;;;8.25;7.25;;;;;-142.71;100.00;64517.53;3725017;37;21548;-60
2021/03/16 03:47:29;;;;;;;;;13.50;11.75;;;;;-142.71;100.00;64517.53;3725561;37;21223;-61
2021/03/16 03:49:58;;;;;;;;;10.50;9.00;;;;;-142.71;100.00;64517.53;3725051;38;21285;-59
2021/03/16 03:52:29;;;;;;;;;10.50;9.50;;;;;-142.71;100.00;64517.53;3725449;37;21252;-59
2021/03/16 03:54:55;;;;;;;;;12.00;11.00;;;;;-142.71;100.00;64517.53;3725024;37;21214;-60
2021/03/16 03:57:25;;;;;;;;;10.75;9.25;;;;;-142.71;100.00;64517.53;3725332;37;21252;-60
2021/03/16 03:59:53;;;;;;;;;12.25;9.75;;;;;-142.71;100.00;64517.53;3724968;38;21202;-61
2021/03/16 04:02:20;;;;;;;;;10.25;10.25;;;;;-142.71;100.00;64517.53;3724989;38;21234;-61
2021/03/16 04:04:48;;;;;;;;;12.00;11.50;;;;;-142.71;100.00;64517.53;3724824;38;21197;-61
2021/03/16 04:07:16;;;;;;;;;13.75;11.25;;;;;-142.71;100.00;64517.53;3724745;38;21289;-61
2021/03/16 04:09:43;;;;;;;;;9.50;9.50;;;;;-142.71;100.00;64517.53;3724801;37;21248;-59
2021/03/16 04:12:15;;;;;;;;;14.00;12.00;;;;;-142.71;100.00;64517.53;3725187;38;20484;-60
2021/03/16 04:14:43;;;;;;;;;11.25;8.50;;;;;-142.71;100.00;64517.53;3724955;38;21266;-60
2021/03/16 04:17:16;;;;;;;;;12.00;11.00;;;;;-142.71;100.00;64517.53;3724967;38;21176;-60
2021/03/16 04:19:44;;;;;;;;;14.50;9.75;;;;;-142.71;100.00;64517.53;3724923;38;21257;-59
2021/03/16 04:22:14;;;;;;;;;8.00;6.50;;;;;-142.71;100.00;64517.53;3725111;38;21206;-60
2021/03/16 04:24:41;;;;;;;;;10.25;8.75;;;;;-142.71;100.00;64517.53;3725103;37;21209;-59
2021/03/16 04:27:09;;;;;;;;;12.00;10.25;;;;;-142.71;100.00;64517.53;3725409;38;21134;-60
2021/03/16 04:29:37;;;;;;;;;2.00;1.25;;;;;-142.71;100.00;64517.53;3725452;37;21209;-59
2021/03/16 04:32:07;;;;;;;;;8.00;8.00;;;;;-142.71;100.00;64517.53;3724979;38;21170;-61
2021/03/16 04:34:45;;;;;;;;;6.00;6.00;;;;;-142.71;100.00;64517.53;3725145;37;21110;-60
2021/03/16 04:37:12;;;;;;;;;7.50;7.50;;;;;-142.71;100.00;64517.53;3725298;37;21161;-59
2021/03/16 04:39:39;;;;;;;;;12.25;8.00;;;;;-142.71;100.00;64517.53;3725358;38;21138;-59
2021/03/16 04:42:08;;;;;;;;;7.25;7.00;;;;;-142.71;100.00;64517.53;3725012;38;21080;-59
2021/03/16 04:44:35;;;;;;;;;12.25;11.25;;;;;-142.71;100.00;64517.53;3725487;37;21138;-61
2021/03/16 04:47:03;;;;;;;;;12.50;8.25;;;;;-142.71;100.00;64517.53;3724937;38;21185;-58
2021/03/16 04:49:31;;;;;;;;;12.25;10.75;;;;;-142.71;100.00;64517.53;3725306;37;21164;-59
2021/03/16 04:51:57;;;;;;;;;10.75;9.00;;;;;-142.71;100.00;64517.53;3725242;38;21202;-60
2021/03/16 04:54:26;;;;;;;;;10.50;10.00;;;;;-142.71;100.00;64517.53;3725400;37;21175;-61
2021/03/16 04:56:53;;;;;;;;;12.50;9.50;;;;;-142.71;100.00;64517.53;3724908;38;21112;-60
2021/03/16 04:59:20;;;;;;;;;6.00;5.75;;;;;-142.71;100.00;64517.53;3724887;37;21144;-60
2021/03/16 05:01:47;;;;;;;;;9.00;8.25;;;;;-142.71;100.00;64517.53;3725103;38;21101;-60
2021/03/16 05:04:13;;;;;;;;;10.50;9.50;;;;;-142.71;100.00;64517.53;3725328;37;21111;-62
2021/03/16 05:06:41;;;;;;;;;11.25;11.00;;;;;-142.71;100.00;64517.53;3725332;37;21198;-60
2021/03/16 05:09:08;;;;;;;;;9.75;8.50;;;;;-142.71;100.00;64517.53;3724792;37;21182;-62
2021/03/16 05:11:35;;;;;;;;;11.25;10.75;;;;;-142.71;100.00;64517.53;3725451;37;21105;-61
2021/03/16 05:14:02;;;;;;;;;7.25;6.75;;;;;-142.71;100.00;64517.53;3725502;38;21182;-61
2021/03/16 05:16:31;;;;;;;;;10.50;10.50;;;;;-142.71;100.00;64517.53;3725084;37;21114;-60
2021/03/16 05:18:58;;;;;;;;;15.25;11.25;;;;;-142.71;100.00;64517.53;3725496;37;21169;-61
2021/03/16 05:21:24;;;;;;;;;12.25;11.75;;;;;-142.71;100.00;64517.53;3724994;37;21173;-62
2021/03/16 05:23:57;;;;;;;;;16.25;14.00;;;;;-142.71;100.00;64517.53;3725466;37;21149;-61
2021/03/16 05:26:24;;;;;;;;;13.75;11.00;;;;;-142.71;100.00;64517.53;3725494;38;21232;-59
2021/03/16 05:28:51;;;;;;;;;11.75;11.50;;;;;-142.71;100.00;64517.53;3725361;38;21171;-61
2021/03/16 05:31:19;;;;;;;;;13.00;11.00;;;;;-142.71;100.00;64517.53;3725221;38;21191;-62
2021/03/16 05:33:48;;;;;;;;;18.25;11.25;;;;;-142.71;100.00;64517.53;3724898;37;21156;-60
2021/03/16 05:36:15;;;;;;;;;10.75;10.50;;;;;-142.71;100.00;64517.53;3725111;37;21160;-62
2021/03/16 05:38:41;;;;;;;;;10.25;7.00;;;;;-142.71;100.00;64517.53;3725331;37;21149;-62
2021/03/16 05:41:09;;;;;;;;;15.00;11.00;;;;;-142.71;100.00;64517.53;3725804;37;21062;-59
2021/03/16 05:43:36;;;;;;;;;12.75;11.25;;;;;-142.71;100.00;64517.53;3725494;38;21150;-62
2021/03/16 05:46:03;;;;;;;;;11.00;8.75;;;;;-142.71;100.00;64517.53;3725611;38;21125;-62
2021/03/16 05:48:30;;;;;;;;;11.25;10.00;;;;;-142.71;100.00;64517.53;3725112;38;21240;-61
2021/03/16 05:51:00;;;;;;;;;3.75;3.00;;;;;-142.71;100.00;64517.53;3725028;37;21152;-61
2021/03/16 05:53:27;;;;;;;;;8.25;8.25;;;;;-142.71;100.00;64517.53;3725215;37;20996;-62
2021/03/16 05:55:54;;;;;;;;;13.50;12.25;;;;;-142.71;100.00;64517.53;3725186;37;21048;-60
2021/03/16 05:58:24;;;;;;;;;10.75;10.25;;;;;-142.71;100.00;64517.53;3725042;37;21183;-62
2021/03/16 06:00:52;;;;;;;;;11.50;8.50;;;;;-142.71;100.00;64517.53;3725093;37;21141;-63
2021/03/16 06:03:18;;;;;;;;;13.25;11.75;;;;;-142.71;100.00;64517.53;3724321;38;21058;-61
2021/03/16 06:05:50;;;;;;;;;11.50;11.00;;;;;-142.71;100.00;64517.53;3725500;37;21128;-62
2021/03/16 06:08:16;;;;;;;;;15.25;14.25;;;;;-142.71;100.00;64517.53;3725328;38;21114;-62
2021/03/16 06:10:44;;;;;;;;;14.00;13.00;;;;;-142.71;100.00;64517.53;3725455;38;21143;-60
2021/03/16 06:13:13;;;;;;;;;10.50;9.00;;;;;-142.71;100.00;64517.53;3725490;37;21145;-62
2021/03/16 06:15:42;;;;;;;;;11.00;11.00;;;;;-142.71;100.00;64517.53;3724833;37;21112;-62
2021/03/16 06:18:23;;;;;;;;;75.25;52.50;;;;;-142.71;100.00;64517.53;3724863;37;21095;-60
2021/03/16 06:21:16;;;;;;;;;22.00;19.50;;;;;-142.71;100.00;64517.53;3726156;37;21278;-62
2021/03/16 06:23:56;;;;;;;;;33.25;33.25;;;;;-142.71;100.00;64517.53;3725221;38;21139;-62
2021/03/16 06:26:27;;;;;;;;;11.25;9.75;;;;;-142.71;100.00;64517.53;3724993;37;21224;-61
2021/03/16 06:29:10;;;;;;;;;37.00;33.75;;;;;-142.71;100.00;64517.53;3725467;37;21099;-60
2021/03/16 06:31:37;;;;;;;;;34.25;29.25;;;;;-142.71;100.00;64517.53;3725430;38;21230;-61
2021/03/16 06:34:04;;;;;;;;;28.75;26.50;;;;;-142.71;100.00;64517.53;3724707;37;21351;-61
2021/03/16 06:36:34;;;;;;;;;15.75;12.75;;;;;-142.71;100.00;64517.53;3725301;37;21099;-60
2021/03/16 06:39:04;;;;;;;;;11.25;8.00;;;;;-142.71;100.00;64517.53;3725151;38;21062;-64
2021/03/16 06:41:36;;;;;;;;;11.25;10.00;;;;;-142.71;100.00;64517.53;3725580;38;21025;-62
2021/03/16 06:44:04;;;;;;;;;12.25;11.00;;;;;-142.71;100.00;64517.53;3725190;37;20969;-61
2021/03/16 06:46:36;;;;;;;;;17.50;15.00;;;;;-142.71;100.00;64517.53;3725741;37;21061;-63
2021/03/16 06:49:19;;;;;;;;;14.50;12.25;;;;;-142.71;100.00;64517.53;3725467;38;21114;-61
2021/03/16 06:51:47;;;;;;;;;13.75;11.25;;;;;-142.71;100.00;64517.53;3725664;37;21001;-61
2021/03/16 06:54:15;;;;;;;;;13.25;10.50;;;;;-142.71;100.00;64517.53;3725389;38;21017;-61
2021/03/16 06:56:52;;;;;;;;;22.50;19.00;;;;;-142.71;100.00;64517.53;3725621;37;21015;-62
2021/03/16 06:59:25;;;;;;;;;16.75;16.00;;;;;-142.71;100.00;64517.53;3725040;37;21029;-64
2021/03/16 07:01:52;;;;;;;;;18.25;17.25;;;;;-142.71;100.00;64517.53;3725646;38;21025;-63
2021/03/16 07:04:21;;;;;;;;;9.75;7.00;;;;;-142.71;100.00;64517.53;3725549;37;21076;-62
2021/03/16 07:06:48;;;;;;;;;23.25;22.25;;;;;-142.71;100.00;64517.53;3725434;38;20985;-60
2021/03/16 07:09:17;;;;;;;;;19.00;16.75;;;;;-142.71;100.00;64517.53;3725348;37;21072;-61
2021/03/16 07:11:55;;;;;;;;;11.00;9.00;;;;;-142.71;100.00;64517.53;3725480;38;21063;-62
2021/03/16 07:14:22;;;;;;;;;12.50;12.00;;;;;-142.71;100.00;64517.53;3725474;38;20917;-61
2021/03/16 07:16:50;;;;;;;;;13.75;12.00;;;;;-142.71;100.00;64517.53;3725470;38;21005;-61
2021/03/16 07:19:20;;;;;;;;;13.25;10.75;;;;;-142.71;100.00;64517.53;3725371;37;21031;-60
2021/03/16 07:21:57;;;;;;;;;12.00;11.00;;;;;-142.71;100.00;64517.53;3725590;37;21002;-61
2021/03/16 07:24:27;;;;;;;;;20.75;16.00;;;;;-142.71;100.00;64517.53;3725106;38;20917;-61
2021/03/16 07:26:57;;;;;;;;;18.50;16.25;;;;;-142.71;100.00;64517.53;3725669;37;20988;-62
2021/03/16 07:29:25;;;;;;;;;16.50;15.50;;;;;-142.71;100.00;64517.53;3725431;38;21032;-61
2021/03/16 07:31:55;;;;;;;;;15.00;12.75;;;;;-142.71;100.00;64517.53;3725003;37;21043;-61
2021/03/16 07:34:21;;;;;;;;;12.25;12.25;;;;;-142.71;100.00;64517.53;3725357;37;20984;-61
2021/03/16 07:36:49;;;;;;;;;9.25;8.75;;;;;-142.71;100.00;64517.53;3725341;38;21000;-63
2021/03/16 07:39:22;;;;;;;;;9.00;9.00;;;;;-142.71;100.00;64517.53;3725092;38;20883;-62
2021/03/16 07:41:52;;;;;;;;;17.75;12.50;;;;;-142.71;100.00;64517.53;3725718;38;20911;-62
2021/03/16 07:44:27;;;;;;;;;9.75;9.25;;;;;-142.71;100.00;64517.53;3725166;37;21050;-62
2021/03/16 07:47:01;;;;;;;;;8.50;7.75;;;;;-142.71;100.00;64517.53;3725447;37;20997;-61
2021/03/16 07:49:35;;;;;;;;;8.75;6.75;;;;;-142.71;100.00;64517.53;3725135;37;20821;-60
2021/03/16 07:52:03;;;;;;;;;13.75;11.00;;;;;-142.71;100.00;64517.53;3725644;37;20890;-61
2021/03/16 07:54:40;;;;;;;;;12.50;9.25;;;;;-142.71;100.00;64517.53;3725373;37;21008;-61
2021/03/16 07:57:08;;;;;;;;;15.00;13.25;;;;;-142.71;100.00;64517.53;3725416;38;20970;-61
2021/03/16 07:59:40;;;;;;;;;12.25;9.00;;;;;-142.71;100.00;64517.53;3724920;37;20966;-61
2021/03/16 08:02:06;;;;;;;;;17.75;14.25;;;;;-142.71;100.00;64517.53;3725481;38;20960;-59
2021/03/16 08:04:42;;;;;;;;;12.75;12.00;;;;;-142.71;100.00;64517.53;3725485;37;20968;-61
2021/03/16 08:07:15;;;;;;;;;11.75;9.25;;;;;-142.71;100.00;64517.53;3725118;37;20950;-60
2021/03/16 08:09:55;;;;;;;;;13.50;12.50;;;;;-142.71;100.00;64517.53;3724807;38;20914;-61
2021/03/16 08:12:27;;;;;;;;;12.50;10.25;;;;;-142.71;100.00;64517.53;3725050;37;20936;-61
2021/03/16 08:14:55;;;;;;;;;11.75;10.00;;;;;-142.71;100.00;64517.53;3725378;37;20952;-61
2021/03/16 08:17:38;;;;;;;;;13.00;11.50;;;;;-142.71;100.00;64517.53;3725011;37;20956;-60
2021/03/16 08:20:08;;;;;;;;;11.75;10.00;;;;;-142.71;100.00;64517.53;3725180;37;20945;-63
2021/03/16 08:22:34;;;;;;;;;12.50;10.75;;;;;-142.71;100.00;64517.53;3725517;38;20962;-61
2021/03/16 08:25:10;;;;;;;;;17.75;16.75;;;;;-142.71;100.00;64517.53;3725462;37;20889;-60
2021/03/16 08:27:41;;;;;;;;;14.50;9.50;;;;;-142.71;100.00;64517.53;3725075;38;20978;-62
2021/03/16 08:30:12;;;;;;;;;13.50;12.00;;;;;-142.71;100.00;64517.53;3725852;37;20921;-60
2021/03/16 08:32:40;;;;;;;;;9.75;9.50;;;;;-142.71;100.00;64517.53;3726046;37;20904;-60
2021/03/16 08:35:08;;;;;;;;;12.50;9.00;;;;;-142.71;100.00;64517.53;3725852;37;20818;-59
2021/03/16 08:37:36;;;;;;;;;16.25;13.50;;;;;-142.71;100.00;64517.53;3726195;37;20861;-59
2021/03/16 08:40:06;;;;;;;;;12.00;11.25;;;;;-142.71;100.00;64517.53;3726308;37;20919;-60
2021/03/16 08:42:34;;;;;;;;;18.00;14.75;;;;;-142.71;100.00;64517.53;3724447;37;20916;-60
2021/03/16 08:45:01;;;;;;;;;13.75;13.50;;;;;-142.71;100.00;64517.53;3720745;38;20932;-61
2021/03/16 08:47:29;;;;;;;;;16.25;13.25;;;;;-142.71;100.00;64517.53;3724502;37;20899;-60
2021/03/16 08:50:00;;;;;;;;;19.25;17.00;;;;;-142.71;100.00;64517.53;3725343;38;20954;-60
2021/03/16 08:52:28;;;;;;;;;13.75;11.25;;;;;-142.71;100.00;64517.53;3725596;38;20935;-62
2021/03/16 08:54:59;;;;;;;;;12.00;10.25;;;;;-142.71;100.00;64517.53;3725614;37;20878;-60
2021/03/16 08:57:29;;;;;;;;;15.25;14.00;;;;;-142.71;100.00;64517.53;3725201;37;20874;-62
2021/03/16 08:59:58;;;;;;;;;14.75;12.50;;;;;-142.71;100.00;64517.53;3725569;38;20941;-61
2021/03/16 09:02:28;;;;;;;;;15.00;12.50;;;;;-142.71;100.00;64517.53;3725774;37;20878;-61
2021/03/16 09:04:58;;;;;;;;;12.00;12.00;;;;;-142.71;100.00;64517.53;3725520;37;20879;-61
2021/03/16 09:07:33;;;;;;;;;18.75;16.00;;;;;-142.71;100.00;64517.53;3725527;38;20874;-61
2021/03/16 09:10:17;;;;;;;;;12.50;11.75;;;;;-142.71;100.00;64517.53;3725035;38;20890;-60
2021/03/16 09:12:46;;;;;;;;;16.25;13.75;;;;;-142.71;100.00;64517.53;3725508;37;20885;-61
2021/03/16 09:15:22;;;;;;;;;13.25;12.50;;;;;-142.71;100.00;64517.53;3725211;37;20862;-60
2021/03/16 09:17:54;;;;;;;;;10.00;8.00;;;;;-142.71;100.00;64517.53;3725094;38;20859;-61
2021/03/16 09:20:38;;;;;;;;;12.50;12.25;;;;;-142.71;100.00;64517.53;3725406;37;20797;-60
2021/03/16 09:23:12;;;;;;;;;11.00;9.00;;;;;-142.71;100.00;64517.53;3725548;37;20851;-60
2021/03/16 09:25:41;;;;;;;;;15.50;12.25;;;;;-142.71;100.00;64517.53;3725637;37;20794;-63
2021/03/16 09:28:12;;;;;;;;;11.50;8.25;;;;;-142.71;100.00;64517.53;3725179;38;20820;-60
2021/03/16 09:30:55;;;;;;;;;14.50;13.00;;;;;-142.71;100.00;64517.53;3725429;37;20745;-62
2021/03/16 09:33:23;;;;;;;;;12.00;10.00;;;;;-142.71;100.00;64517.53;3725864;38;20831;-59
2021/03/16 09:36:00;;;;;;;;;12.75;12.00;;;;;-142.71;100.00;64517.53;3725671;38;20891;-59
2021/03/16 09:38:28;;;;;;;;;12.00;9.50;;;;;-142.71;100.00;64517.53;3725210;38;20865;-60
2021/03/16 09:40:55;;;;;;;;;14.00;13.00;;;;;-142.71;100.00;64517.53;3725622;38;20695;-62
2021/03/16 09:43:31;;;;;;;;;13.75;13.00;;;;;-142.71;100.00;64517.53;3725483;38;20883;-59
2021/03/16 09:46:12;;;;;;;;;12.75;12.00;;;;;-142.71;100.00;64517.53;3725617;37;20882;-60
2021/03/16 09:48:40;;;;;;;;;12.25;10.25;;;;;-142.71;100.00;64517.53;3725658;38;20833;-62
2021/03/16 09:51:29;;;;;;;;;14.75;13.25;;;;;-142.71;100.00;64517.53;3725598;37;20800;-61
2021/03/16 09:53:58;;;;;;;;;9.00;7.00;;;;;-142.71;100.00;64517.53;3724778;37;20806;-62
2021/03/16 09:56:30;;;;;;;;;12.75;11.75;;;;;-142.71;100.00;64517.53;3725514;38;20780;-60
2021/03/16 09:59:03;;;;;;;;;15.00;11.25;;;;;-142.71;100.00;64517.53;3725191;37;20763;-61
2021/03/16 10:01:30;;;;;;;;;17.00;12.00;;;;;-142.71;100.00;64517.53;3725537;37;20845;-61
2021/03/16 10:04:17;;;;;;;;;12.00;11.50;;;;;-142.71;100.00;64517.53;3725827;37;20818;-60
2021/03/16 10:06:46;;;;;;;;;12.50;11.25;;;;;-142.71;100.00;64517.53;3725711;37;20761;-60
2021/03/16 10:09:26;;;;;;;;;12.00;11.00;;;;;-142.71;100.00;64517.53;3725570;37;20789;-60
2021/03/16 10:11:53;;;;;;;;;3.25;2.25;;;;;-142.71;100.00;64517.53;3725295;38;20729;-59
2021/03/16 10:14:33;;;;;;;;;12.00;9.50;;;;;-142.71;100.00;64517.53;3725362;38;20693;-60
2021/03/16 10:16:59;;;;;;;;;12.00;8.25;;;;;-142.71;100.00;64517.53;3726118;38;20782;-60
2021/03/16 10:19:32;;;;;;;;;11.00;9.75;;;;;-142.71;100.00;64517.53;3725916;38;20699;-61
2021/03/16 10:22:12;;;;;;;;;10.50;9.25;;;;;-142.71;100.00;64517.53;3725576;38;20761;-60
2021/03/16 10:24:38;;;;;;;;;10.25;8.25;;;;;-142.71;100.00;64517.53;3725148;37;20729;-60
2021/03/16 10:27:06;;;;;;;;;10.00;9.00;;;;;-142.71;100.00;64517.53;3725620;37;20733;-59
2021/03/16 10:29:38;;;;;;;;;9.25;8.75;;;;;-142.71;100.00;64517.53;3725519;38;20735;-59
2021/03/16 10:32:05;;;;;;;;;13.50;8.00;;;;;-142.71;100.00;64517.53;3725415;37;20727;-60
2021/03/16 10:34:34;;;;;;;;;8.50;8.25;;;;;-142.71;100.00;64517.53;3725116;37;20706;-60
2021/03/16 10:37:01;;;;;;;;;10.00;8.00;;;;;-142.71;100.00;64517.53;3725292;37;20686;-59
2021/03/16 10:39:28;;;;;;;;;6.00;5.25;;;;;-142.71;100.00;64517.53;3725520;37;20664;-59
2021/03/16 10:41:56;;;;;;;;;8.00;7.25;;;;;-142.71;100.00;64517.53;3725772;37;21030;-59
2021/03/16 10:44:23;;;;;;;;;9.75;9.00;;;;;-142.71;100.00;64517.53;3725469;38;20802;-58
2021/03/16 10:46:50;;;;;;;;;9.50;8.50;;;;;-142.71;100.00;64517.53;3725238;38;20712;-59
2021/03/16 10:49:18;;;;;;;;;10.00;10.00;;;;;-142.71;100.00;64517.53;3725322;37;20665;-59
2021/03/16 10:51:46;;;;;;;;;13.25;10.75;;;;;-142.71;100.00;64517.53;3725835;38;20661;-60
2021/03/16 10:54:14;;;;;;;;;9.25;8.75;;;;;-142.71;100.00;64517.53;3725683;37;20753;-60
2021/03/16 10:56:41;;;;;;;;;9.50;9.00;;;;;-142.71;100.00;64517.53;3725075;37;20664;-61
2021/03/16 10:59:09;;;;;;;;;14.75;11.25;;;;;-142.71;100.00;64517.53;3725559;38;20665;-58
2021/03/16 11:01:36;;;;;;;;;9.00;9.00;;;;;-142.71;100.00;64517.53;3725074;38;20724;-61
2021/03/16 11:04:02;;;;;;;;;13.25;9.50;;;;;-142.71;100.00;64517.53;3725303;37;20637;-59
2021/03/16 11:06:29;;;;;;;;;12.75;10.50;;;;;-142.71;100.00;64517.53;3725857;37;20719;-61
2021/03/16 11:08:57;;;;;;;;;10.00;9.25;;;;;-142.71;100.00;64517.53;3726238;38;20722;-59
2021/03/16 11:11:31;;;;;;;;;12.75;11.75;;;;;-142.71;100.00;64517.53;3726356;37;20725;-57